createdAt,value
2022-08-30T00:02:26.407Z,36.78
2022-08-30T00:05:09.482Z,36.50
2022-08-30T00:10:42.061Z,41.70
2022-08-30T00:13:32.364Z,41.22
2022-08-30T00:16:21.495Z,41.17
2022-08-30T00:19:09.564Z,49.42
2022-08-30T00:21:51.407Z,47.47
2022-08-30T00:24:33.613Z,48.45
2022-08-30T00:27:22.407Z,48.35
2022-08-30T00:30:12.393Z,43.03
2022-08-30T00:32:55.652Z,42.20
2022-08-30T00:35:44.409Z,44.30
2022-08-30T00:38:26.654Z,43.35
2022-08-30T00:41:21.398Z,44.80
2022-08-30T00:44:03.824Z,48.35
2022-08-30T00:46:52.307Z,45.85
2022-08-30T00:49:36.445Z,44.25
2022-08-30T00:52:25.288Z,40.67
2022-08-30T00:55:15.280Z,45.42
2022-08-30T00:58:03.937Z,44.92
2022-08-30T01:00:54.667Z,46.45
2022-08-30T01:03:38.316Z,48.10
2022-08-30T01:06:35.375Z,55.00
2022-08-30T01:09:24.394Z,50.22
2022-08-30T01:12:06.664Z,47.75
2022-08-30T01:14:55.313Z,44.10
2022-08-30T01:17:44.275Z,46.72
2022-08-30T01:20:42.932Z,44.90
2022-08-30T01:23:29.302Z,43.92
2022-08-30T01:26:12.798Z,48.50
2022-08-30T01:29:09.439Z,44.38
2022-08-30T01:31:58.726Z,46.08
2022-08-30T01:34:40.366Z,50.95
2022-08-30T01:37:29.706Z,50.33
2022-08-30T01:40:19.488Z,45.20
2022-08-30T01:43:07.974Z,47.85
2022-08-30T01:45:51.451Z,47.92
2022-08-30T01:48:40.378Z,53.20
2022-08-30T01:51:30.375Z,46.83
2022-08-30T01:54:19.708Z,46.50
2022-08-30T01:57:01.365Z,48.30
2022-08-30T01:59:55.398Z,43.47
2022-08-30T02:02:47.693Z,50.20
2022-08-30T02:05:36.415Z,45.85
2022-08-30T02:08:18.658Z,44.58
2022-08-30T02:11:08.429Z,51.40
2022-08-30T02:13:51.745Z,47.55
2022-08-30T02:19:23.716Z,41.22
2022-08-30T02:22:13.265Z,38.38
2022-08-30T02:25:02.395Z,34.38
2022-08-30T02:27:51.368Z,38.63
2022-08-30T02:30:33.677Z,34.95
2022-08-30T02:33:23.379Z,43.42
2022-08-30T02:36:05.645Z,35.30
2022-08-30T02:38:54.294Z,40.05
2022-08-30T02:41:43.377Z,27.02
2022-08-30T02:44:38.253Z,30.17
2022-08-30T02:47:27.396Z,34.05
2022-08-30T02:50:12.651Z,38.63
2022-08-30T02:53:01.400Z,37.53
2022-08-30T02:55:50.277Z,47.05
2022-08-30T02:58:39.396Z,41.60
2022-08-30T03:01:25.281Z,46.47
2022-08-30T03:04:16.273Z,42.50
2022-08-30T03:07:05.366Z,41.47
2022-08-30T03:09:54.006Z,38.80
2022-08-30T03:12:36.403Z,42.63
2022-08-30T03:15:25.377Z,40.97
2022-08-30T03:18:07.576Z,46.15
2022-08-30T03:20:56.388Z,45.15
2022-08-30T03:23:38.692Z,45.08
2022-08-30T03:26:27.386Z,42.70
2022-08-30T03:29:09.635Z,42.13
2022-08-30T03:32:01.447Z,47.47
2022-08-30T03:34:43.676Z,51.13
2022-08-30T03:37:33.283Z,49.83
2022-08-30T03:40:18.060Z,51.33
2022-08-30T03:43:13.412Z,53.92
2022-08-30T03:46:02.118Z,63.75
2022-08-30T03:48:45.493Z,58.95
2022-08-30T03:51:34.233Z,55.17
2022-08-30T03:54:17.362Z,61.20
2022-08-30T03:56:59.594Z,57.28
2022-08-30T03:59:48.362Z,55.60
2022-08-30T04:02:36.793Z,64.63
2022-08-30T04:05:19.364Z,56.85
2022-08-30T04:08:08.299Z,65.97
2022-08-30T04:10:57.375Z,58.47
2022-08-30T04:13:46.358Z,58.15
2022-08-30T04:16:28.633Z,46.22
2022-08-30T04:19:17.380Z,50.88
2022-08-30T04:21:59.567Z,52.88
2022-08-30T04:24:49.378Z,45.47
2022-08-30T04:27:31.653Z,51.50
2022-08-30T04:30:21.365Z,49.80
2022-08-30T04:33:03.686Z,54.88
2022-08-30T04:35:56.393Z,63.80
2022-08-30T04:38:40.427Z,68.50
2022-08-30T04:41:32.695Z,85.30
2022-08-30T04:44:27.258Z,79.18
2022-08-30T04:47:22.365Z,69.68
2022-08-30T04:50:12.494Z,53.72
2022-08-30T04:52:55.641Z,44.85
2022-08-30T04:55:44.310Z,47.72
2022-08-30T04:58:26.722Z,45.65
2022-08-30T05:01:45.694Z,60.50
2022-08-30T05:04:28.654Z,54.38
2022-08-30T05:07:17.408Z,59.60
2022-08-30T05:09:59.810Z,65.47
2022-08-30T05:12:48.381Z,72.97
2022-08-30T05:15:30.557Z,68.28
2022-08-30T05:18:20.375Z,64.88
2022-08-30T05:21:17.637Z,83.72
2022-08-30T05:24:10.364Z,94.60
2022-08-30T05:26:52.572Z,89.43
2022-08-30T05:29:41.457Z,91.80
2022-08-30T05:32:23.739Z,91.05
2022-08-30T05:35:14.402Z,90.75
2022-08-30T05:37:56.721Z,83.60
2022-08-30T05:40:50.436Z,77.65
2022-08-30T05:43:33.554Z,74.43
2022-08-30T05:46:30.467Z,74.80
2022-08-30T05:49:25.283Z,64.75
2022-08-30T05:52:16.578Z,51.15
2022-08-30T05:55:06.435Z,52.22
2022-08-30T05:57:55.617Z,45.92
2022-08-30T06:00:38.298Z,50.47
2022-08-30T06:06:11.404Z,44.42
2022-08-30T06:08:59.626Z,50.13
2022-08-30T06:11:42.621Z,60.85
2022-08-30T06:14:31.664Z,61.72
2022-08-30T06:17:14.365Z,65.18
2022-08-30T06:20:03.306Z,65.78
2022-08-30T06:22:52.284Z,61.08
2022-08-30T06:25:44.555Z,59.90
2022-08-30T06:28:26.661Z,62.33
2022-08-30T06:31:16.717Z,57.75
2022-08-30T06:33:59.363Z,50.97
2022-08-30T06:36:41.881Z,57.03
2022-08-30T06:39:30.387Z,53.42
2022-08-30T06:42:19.368Z,57.13
2022-08-30T06:45:11.047Z,53.67
2022-08-30T06:48:00.380Z,55.53
2022-08-30T06:50:48.650Z,59.17
2022-08-30T06:53:31.306Z,63.97
2022-08-30T06:59:03.600Z,63.85
2022-08-30T07:01:52.401Z,64.45
2022-08-30T07:04:34.746Z,66.45
2022-08-30T07:07:23.377Z,79.25
2022-08-30T07:10:05.708Z,91.40
2022-08-30T07:12:54.407Z,75.78
2022-08-30T07:15:38.113Z,83.65
2022-08-30T07:18:46.305Z,74.50
2022-08-30T07:21:46.416Z,77.65
2022-08-30T07:24:28.467Z,86.00
2022-08-30T07:27:17.373Z,62.53
2022-08-30T07:30:05.643Z,48.47
2022-08-30T07:32:48.682Z,56.88
2022-08-30T07:35:30.602Z,62.72
2022-08-30T07:38:19.382Z,57.25
2022-08-30T07:41:02.479Z,52.08
2022-08-30T07:43:51.426Z,45.05
2022-08-30T07:46:33.911Z,46.45
2022-08-30T07:49:28.385Z,42.58
2022-08-30T07:52:17.763Z,42.80
2022-08-30T07:54:59.399Z,40.10
2022-08-30T07:57:47.714Z,41.63
2022-08-30T08:00:30.381Z,39.10
2022-08-30T08:03:18.751Z,32.92
2022-08-30T08:06:01.502Z,40.03
2022-08-30T08:08:53.635Z,33.05
2022-08-30T08:11:43.379Z,36.83
2022-08-30T08:14:25.656Z,28.10
2022-08-30T08:17:15.413Z,34.07
2022-08-30T08:20:03.633Z,26.63
2022-08-30T08:22:45.387Z,29.75
2022-08-30T08:25:34.369Z,29.45
2022-08-30T08:28:24.352Z,33.35
2022-08-30T08:31:27.360Z,19.98
2022-08-30T08:34:23.352Z,24.83
2022-08-30T08:37:12.303Z,17.85
2022-08-30T08:39:54.764Z,26.92
2022-08-30T08:43:20.286Z,28.80
2022-08-30T08:46:11.618Z,21.05
2022-08-30T08:49:05.390Z,27.90
2022-08-30T08:52:19.218Z,20.90
2022-08-30T08:58:05.419Z,21.15
2022-08-30T09:00:47.669Z,21.92
2022-08-30T09:03:37.389Z,22.40
2022-08-30T09:06:52.654Z,19.77
2022-08-30T09:09:45.452Z,24.33
2022-08-30T09:12:28.711Z,22.88
2022-08-30T09:15:30.455Z,32.28
2022-08-30T09:18:19.842Z,26.90
2022-08-30T09:21:18.467Z,25.38
2022-08-30T09:24:20.667Z,30.95
2022-08-30T09:27:38.399Z,26.52
2022-08-30T09:30:39.437Z,30.50
2022-08-30T09:33:28.670Z,23.10
2022-08-30T09:36:34.415Z,19.92
2022-08-30T09:39:23.740Z,35.22
2022-08-30T09:42:42.403Z,31.42
2022-08-30T09:45:38.611Z,26.23
2022-08-30T09:48:48.392Z,28.88
2022-08-30T09:51:37.712Z,27.70
2022-08-30T09:54:45.721Z,25.15
2022-08-30T09:58:05.380Z,27.95
2022-08-30T10:01:45.614Z,28.08
2022-08-30T10:04:48.362Z,28.88
2022-08-30T10:08:01.295Z,32.25
2022-08-30T10:11:04.376Z,29.73
2022-08-30T10:14:19.723Z,30.95
2022-08-30T10:17:17.491Z,28.92
2022-08-30T10:20:26.664Z,25.50
2022-08-30T10:23:34.287Z,31.48
2022-08-30T10:26:45.364Z,23.85
2022-08-30T10:29:47.271Z,25.73
2022-08-30T10:33:12.260Z,23.30
2022-08-30T10:36:05.276Z,21.60
2022-08-30T10:39:00.540Z,28.27
2022-08-30T10:42:06.363Z,28.02
2022-08-30T10:45:04.250Z,23.83
2022-08-30T10:48:08.710Z,26.73
2022-08-30T10:51:00.234Z,18.15
2022-08-30T10:54:09.390Z,16.60
2022-08-30T10:57:07.229Z,29.17
2022-08-30T11:00:08.282Z,19.80
2022-08-30T11:03:21.405Z,21.08
2022-08-30T11:06:17.947Z,18.27
2022-08-30T11:09:12.367Z,15.93
2022-08-30T11:12:29.380Z,13.48
2022-08-30T11:15:34.383Z,15.95
2022-08-30T11:18:17.534Z,16.42
2022-08-30T11:21:30.275Z,14.77
2022-08-30T11:24:24.571Z,15.05
2022-08-30T11:27:15.377Z,18.05
2022-08-30T11:29:57.550Z,18.65
2022-08-30T11:33:39.357Z,14.88
2022-08-30T11:36:37.812Z,18.77
2022-08-30T11:40:04.375Z,17.63
2022-08-30T11:42:56.353Z,21.98
2022-08-30T11:45:45.338Z,20.10
2022-08-30T11:48:56.306Z,17.38
2022-08-30T11:52:27.594Z,20.05
2022-08-30T11:55:43.265Z,24.98
2022-08-30T11:59:00.258Z,24.10
2022-08-30T12:01:56.586Z,20.95
2022-08-30T12:04:46.676Z,33.05
2022-08-30T12:08:12.262Z,26.65
2022-08-30T12:11:16.360Z,25.92
2022-08-30T12:14:01.659Z,30.92
2022-08-30T12:17:15.279Z,29.65
2022-08-30T12:19:58.545Z,24.27
2022-08-30T12:22:48.242Z,30.50
2022-08-30T12:25:38.665Z,32.28
2022-08-30T12:28:33.363Z,32.00
2022-08-30T12:31:23.037Z,33.00
2022-08-30T12:34:12.266Z,38.22
2022-08-30T12:37:19.381Z,31.02
2022-08-30T12:40:07.365Z,38.22
2022-08-30T12:43:08.274Z,36.28
2022-08-30T12:45:52.006Z,31.13
2022-08-30T12:48:42.347Z,36.72
2022-08-30T12:51:42.448Z,35.15
2022-08-30T12:54:38.271Z,37.42
2022-08-30T12:57:52.672Z,41.28
2022-08-30T13:01:00.483Z,38.20
2022-08-30T13:03:55.270Z,41.25
2022-08-30T13:06:58.295Z,43.10
2022-08-30T13:09:56.368Z,42.77
2022-08-30T13:12:51.218Z,52.83
2022-08-30T13:15:43.394Z,45.88
2022-08-30T13:18:44.699Z,50.72
2022-08-30T13:21:41.393Z,43.88
2022-08-30T13:24:25.635Z,44.40
2022-08-30T13:27:17.356Z,43.67
2022-08-30T13:30:00.028Z,44.53
2022-08-30T13:32:49.420Z,51.15
2022-08-30T13:35:32.702Z,57.88
2022-08-30T13:38:21.388Z,55.67
2022-08-30T13:41:03.750Z,50.35
2022-08-30T13:44:11.295Z,66.22
2022-08-30T13:47:32.157Z,59.22
2022-08-30T13:50:08.370Z,52.38
2022-08-30T13:52:51.673Z,55.28
2022-08-30T13:55:40.665Z,52.80
2022-08-30T13:58:22.544Z,56.38
2022-08-30T14:01:11.405Z,56.97
2022-08-30T14:07:20.393Z,62.45
2022-08-30T14:13:17.357Z,57.38
2022-08-30T14:19:10.366Z,53.40
2022-08-30T14:21:53.731Z,58.03
2022-08-30T14:24:42.349Z,54.20
2022-08-30T14:27:32.380Z,59.90
2022-08-30T14:30:21.373Z,57.13
2022-08-30T14:33:10.339Z,55.90
2022-08-30T14:36:01.674Z,51.70
2022-08-30T14:38:44.419Z,69.53
2022-08-30T14:41:32.642Z,57.20
2022-08-30T14:44:14.385Z,60.60
2022-08-30T14:46:57.132Z,62.38
2022-08-30T14:49:46.270Z,60.38
2022-08-30T14:52:40.340Z,62.97
2022-08-30T14:58:11.271Z,60.25
2022-08-30T15:01:00.784Z,67.65
2022-08-30T15:03:49.349Z,63.53
2022-08-30T15:06:34.741Z,58.97
2022-08-30T15:09:28.279Z,68.50
2022-08-30T15:12:23.355Z,72.22
2022-08-30T15:15:06.789Z,68.30
2022-08-30T15:17:58.330Z,61.45
2022-08-30T15:20:57.385Z,64.45
2022-08-30T15:23:39.641Z,67.22
2022-08-30T15:26:29.299Z,63.30
2022-08-30T15:29:11.689Z,60.30
2022-08-30T15:32:00.387Z,68.03
2022-08-30T15:34:55.707Z,67.35
2022-08-30T15:37:38.827Z,63.17
2022-08-30T15:40:27.515Z,63.58
2022-08-30T15:43:16.445Z,66.63
2022-08-30T15:45:58.635Z,55.55
2022-08-30T15:48:47.396Z,62.95
2022-08-30T15:51:30.777Z,67.88
2022-08-30T15:54:31.339Z,67.43
2022-08-30T15:57:21.245Z,57.88
2022-08-30T16:00:11.531Z,59.70
2022-08-30T16:02:57.350Z,69.45
2022-08-30T16:05:45.676Z,78.47
2022-08-30T16:08:27.349Z,69.47
2022-08-30T16:11:25.262Z,68.13
2022-08-30T16:14:21.472Z,56.35
2022-08-30T16:17:09.375Z,69.07
2022-08-30T16:19:52.230Z,64.93
2022-08-30T16:22:45.809Z,63.20
2022-08-30T16:25:39.899Z,65.20
2022-08-30T16:28:29.725Z,62.30
2022-08-30T16:31:13.301Z,64.93
2022-08-30T16:34:04.269Z,65.35
2022-08-30T16:36:47.089Z,73.43
2022-08-30T16:39:36.354Z,64.45
2022-08-30T16:42:20.985Z,57.55
2022-08-30T16:45:03.294Z,65.80
2022-08-30T16:47:59.368Z,62.53
2022-08-30T16:50:44.735Z,58.75
2022-08-30T16:53:33.514Z,65.20
2022-08-30T16:56:22.479Z,64.28
2022-08-30T16:59:14.110Z,68.70
2022-08-30T17:02:02.419Z,72.45
2022-08-30T17:04:46.941Z,70.72
2022-08-30T17:07:44.684Z,66.57
2022-08-30T17:10:35.133Z,65.63
2022-08-30T17:13:31.101Z,73.35
2022-08-30T17:16:27.874Z,67.45
2022-08-30T17:19:26.846Z,64.88
2022-08-30T17:22:12.286Z,61.05
2022-08-30T17:25:02.236Z,68.90
2022-08-30T17:27:45.377Z,67.28
2022-08-30T17:30:34.336Z,66.35
2022-08-30T17:33:23.156Z,70.95
2022-08-30T17:36:12.370Z,76.30
2022-08-30T17:39:04.273Z,74.80
2022-08-30T17:42:00.901Z,81.15
2022-08-30T17:44:50.815Z,75.07
2022-08-30T17:47:36.050Z,75.60
2022-08-30T17:50:25.509Z,77.00
2022-08-30T17:53:10.115Z,70.18
2022-08-30T17:55:59.099Z,64.57
2022-08-30T17:58:42.609Z,64.78
2022-08-30T18:01:31.459Z,70.45
2022-08-30T18:04:14.426Z,70.88
2022-08-30T18:07:08.356Z,68.15
2022-08-30T18:09:54.574Z,70.50
2022-08-30T18:12:49.115Z,66.63
2022-08-30T18:15:44.251Z,65.38
2022-08-30T18:18:33.119Z,64.78
2022-08-30T18:21:28.449Z,67.25
2022-08-30T18:24:18.341Z,66.28
2022-08-30T18:27:07.111Z,68.22
2022-08-30T18:29:55.561Z,66.07
2022-08-30T18:32:38.141Z,66.95
2022-08-30T18:35:26.933Z,63.92
2022-08-30T18:38:08.351Z,73.90
2022-08-30T18:40:57.390Z,76.40
2022-08-30T18:43:40.360Z,77.05
2022-08-30T18:46:29.509Z,75.72
2022-08-30T18:49:16.384Z,77.00
2022-08-30T18:52:06.115Z,51.17
2022-08-30T18:54:52.880Z,50.90
2022-08-30T18:57:42.345Z,56.95
2022-08-30T19:00:25.407Z,60.88
2022-08-30T19:03:14.359Z,55.28
2022-08-30T19:05:56.526Z,50.22
2022-08-30T19:08:49.021Z,51.72
2022-08-30T19:11:31.330Z,60.53
2022-08-30T19:14:20.365Z,48.65
2022-08-30T19:17:06.744Z,50.90
2022-08-30T19:19:56.258Z,58.65
2022-08-30T19:23:06.339Z,53.50
2022-08-30T19:25:52.740Z,51.30
2022-08-30T19:28:37.284Z,57.10
2022-08-30T19:31:26.388Z,53.38
2022-08-30T19:34:09.470Z,48.40
2022-08-30T19:36:58.340Z,52.63
2022-08-30T19:39:41.801Z,62.60
2022-08-30T19:42:31.096Z,53.22
2022-08-30T19:45:14.674Z,55.22
2022-08-30T19:48:05.396Z,53.20
2022-08-30T19:50:47.835Z,57.13
2022-08-30T19:53:36.370Z,52.90
2022-08-30T19:56:18.524Z,50.67
2022-08-30T19:59:07.384Z,48.40
2022-08-30T20:01:49.608Z,43.50
2022-08-30T20:04:40.998Z,44.88
2022-08-30T20:07:31.119Z,42.80
2022-08-30T20:10:25.895Z,44.70
2022-08-30T20:13:09.352Z,43.55
2022-08-30T20:16:10.973Z,36.13
2022-08-30T20:19:03.331Z,35.65
2022-08-30T20:21:47.084Z,37.72
2022-08-30T20:24:39.383Z,37.90
2022-08-30T20:27:26.333Z,35.65
2022-08-30T20:30:17.347Z,32.13
2022-08-30T20:33:01.578Z,33.83
2022-08-30T20:35:52.057Z,32.72
2022-08-30T20:38:34.439Z,30.10
2022-08-30T20:41:25.336Z,42.53
2022-08-30T20:44:07.376Z,36.17
2022-08-30T20:47:00.258Z,37.42
2022-08-30T20:49:49.233Z,34.92
2022-08-30T20:52:31.584Z,27.25
2022-08-30T20:55:20.995Z,29.75
2022-08-30T20:58:09.290Z,29.00
2022-08-30T21:00:52.846Z,30.92
2022-08-30T21:03:34.050Z,26.88
2022-08-30T21:06:24.339Z,23.77
2022-08-30T21:09:14.460Z,30.35
2022-08-30T21:11:57.347Z,33.42
2022-08-30T21:14:52.190Z,26.48
2022-08-30T21:17:41.133Z,29.23
2022-08-30T21:20:24.236Z,24.77
2022-08-30T21:23:13.093Z,25.20
2022-08-30T21:25:55.743Z,26.75
2022-08-30T21:28:44.348Z,25.48
2022-08-30T21:31:31.379Z,27.38
2022-08-30T21:34:20.248Z,24.58
2022-08-30T21:37:02.646Z,25.23
2022-08-30T21:39:51.268Z,25.17
2022-08-30T21:42:33.578Z,28.08
2022-08-30T21:45:22.979Z,25.83
2022-08-30T21:48:04.377Z,22.58
2022-08-30T21:50:54.030Z,24.15
2022-08-30T21:53:36.393Z,34.55
2022-08-30T21:56:29.294Z,22.30
2022-08-30T21:59:12.594Z,27.02
2022-08-30T22:02:03.022Z,23.63
2022-08-30T22:04:52.099Z,25.33
2022-08-30T22:07:40.891Z,31.55
2022-08-30T22:10:23.345Z,28.00
2022-08-30T22:13:14.061Z,29.98
2022-08-30T22:16:03.005Z,25.17
2022-08-30T22:18:46.412Z,29.85
2022-08-30T22:21:37.087Z,27.27
2022-08-30T22:24:20.405Z,29.30
2022-08-30T22:27:09.976Z,24.80
2022-08-30T22:29:52.519Z,28.67
2022-08-30T22:32:41.125Z,29.25
2022-08-30T22:35:23.874Z,31.95
2022-08-30T22:38:12.406Z,29.92
2022-08-30T22:40:59.644Z,30.13
2022-08-30T22:43:48.171Z,24.52
2022-08-30T22:46:34.326Z,28.70
2022-08-30T22:52:12.001Z,23.45
2022-08-30T22:55:01.266Z,22.23
2022-08-30T22:57:45.628Z,29.83
2022-08-30T23:00:35.240Z,27.00
2022-08-30T23:03:25.248Z,21.08
2022-08-30T23:06:14.388Z,30.95
2022-08-30T23:08:56.315Z,22.98
2022-08-30T23:11:45.388Z,23.77
2022-08-30T23:14:27.402Z,22.13
2022-08-30T23:17:16.352Z,24.90
2022-08-30T23:20:00.186Z,18.25
2022-08-30T23:22:49.347Z,23.95
2022-08-30T23:25:58.344Z,18.85
2022-08-30T23:29:04.658Z,25.63
2022-08-30T23:32:05.120Z,22.17
2022-08-30T23:35:13.042Z,22.55
2022-08-30T23:38:14.324Z,18.42
2022-08-30T23:41:21.025Z,22.15
2022-08-30T23:44:28.013Z,25.73
2022-08-30T23:47:28.799Z,25.48
2022-08-30T23:50:39.212Z,19.75
2022-08-30T23:53:39.709Z,22.88
2022-08-30T23:56:51.341Z,20.83
2022-08-30T23:59:59.591Z,21.35
